sensor_id;sensor_type;location;lat;lon;timestamp;pressure;altitude;pressure_sealevel;temperature;humidity
73284;BME280;61519;60.050;18.582;2024-01-16T00:00:34;99269.19;;;-5.51;63.77
73284;BME280;61519;60.050;18.582;2024-01-16T00:03:00;99256.72;;;-5.79;63.42
73284;BME280;61519;60.050;18.582;2024-01-16T00:05:25;99283.88;;;-5.64;63.28
73284;BME280;61519;60.050;18.582;2024-01-16T00:07:50;99276.13;;;-5.75;63.51
73284;BME280;61519;60.050;18.582;2024-01-16T00:10:17;99238.94;;;-6.04;63.54
73284;BME280;61519;60.050;18.582;2024-01-16T00:12:42;99237.94;;;-6.14;63.57
73284;BME280;61519;60.050;18.582;2024-01-16T00:15:08;99294.78;;;-5.84;63.40
73284;BME280;61519;60.050;18.582;2024-01-16T00:17:34;99290.81;;;-5.88;63.83
73284;BME280;61519;60.050;18.582;2024-01-16T00:19:59;99284.97;;;-5.90;63.74
73284;BME280;61519;60.050;18.582;2024-01-16T00:22:29;99300.59;;;-5.82;63.46
73284;BME280;61519;60.050;18.582;2024-01-16T00:24:55;99298.38;;;-5.76;63.78
73284;BME280;61519;60.050;18.582;2024-01-16T00:27:20;99313.03;;;-5.65;63.92
73284;BME280;61519;60.050;18.582;2024-01-16T00:29:45;99301.72;;;-5.63;63.91
73284;BME280;61519;60.050;18.582;2024-01-16T00:32:11;99316.00;;;-5.48;63.54
73284;BME280;61519;60.050;18.582;2024-01-16T00:34:43;99287.38;;;-5.54;64.14
73284;BME280;61519;60.050;18.582;2024-01-16T00:37:09;99300.28;;;-5.32;64.03
73284;BME280;61519;60.050;18.582;2024-01-16T00:39:34;99291.41;;;-5.39;64.18
73284;BME280;61519;60.050;18.582;2024-01-16T00:42:01;99315.06;;;-5.23;64.03
73284;BME280;61519;60.050;18.582;2024-01-16T00:44:26;99316.47;;;-5.19;64.11
73284;BME280;61519;60.050;18.582;2024-01-16T00:46:52;99323.81;;;-5.14;64.23
73284;BME280;61519;60.050;18.582;2024-01-16T00:49:17;99314.59;;;-5.17;64.33
73284;BME280;61519;60.050;18.582;2024-01-16T00:51:42;99317.53;;;-5.10;64.20
73284;BME280;61519;60.050;18.582;2024-01-16T00:54:08;99302.22;;;-5.23;64.17
73284;BME280;61519;60.050;18.582;2024-01-16T00:56:35;99304.78;;;-5.23;64.37
73284;BME280;61519;60.050;18.582;2024-01-16T00:59:01;99310.84;;;-5.13;64.44
73284;BME280;61519;60.050;18.582;2024-01-16T01:01:27;99324.41;;;-5.11;64.47
73284;BME280;61519;60.050;18.582;2024-01-16T01:03:52;99324.75;;;-5.15;64.44
73284;BME280;61519;60.050;18.582;2024-01-16T01:06:17;99299.16;;;-5.28;64.23
73284;BME280;61519;60.050;18.582;2024-01-16T01:08:43;99324.66;;;-5.14;64.39
73284;BME280;61519;60.050;18.582;2024-01-16T01:11:08;99335.16;;;-5.17;64.58
73284;BME280;61519;60.050;18.582;2024-01-16T01:13:33;99336.78;;;-5.16;64.27
73284;BME280;61519;60.050;18.582;2024-01-16T01:15:59;99334.47;;;-5.19;64.23
73284;BME280;61519;60.050;18.582;2024-01-16T01:18:25;99344.63;;;-5.17;64.42
73284;BME280;61519;60.050;18.582;2024-01-16T01:20:50;99349.03;;;-5.19;64.19
73284;BME280;61519;60.050;18.582;2024-01-16T01:23:16;99353.69;;;-5.24;64.26
73284;BME280;61519;60.050;18.582;2024-01-16T01:25:41;99333.88;;;-5.46;64.31
73284;BME280;61519;60.050;18.582;2024-01-16T01:28:06;99341.38;;;-5.43;63.98
73284;BME280;61519;60.050;18.582;2024-01-16T01:30:32;99338.81;;;-5.43;64.14
73284;BME280;61519;60.050;18.582;2024-01-16T01:32:57;99335.97;;;-5.51;64.26
73284;BME280;61519;60.050;18.582;2024-01-16T01:35:23;99354.44;;;-5.46;64.14
73284;BME280;61519;60.050;18.582;2024-01-16T01:37:50;99351.38;;;-5.51;63.87
73284;BME280;61519;60.050;18.582;2024-01-16T01:40:15;99374.38;;;-5.50;64.08
73284;BME280;61519;60.050;18.582;2024-01-16T01:42:41;99338.94;;;-5.68;64.31
73284;BME280;61519;60.050;18.582;2024-01-16T01:45:11;99367.22;;;-5.57;64.13
73284;BME280;61519;60.050;18.582;2024-01-16T01:47:37;99349.25;;;-5.81;64.12
73284;BME280;61519;60.050;18.582;2024-01-16T01:50:03;99307.50;;;-6.06;64.24
73284;BME280;61519;60.050;18.582;2024-01-16T01:52:31;99395.38;;;-5.56;64.19
73284;BME280;61519;60.050;18.582;2024-01-16T01:54:57;99351.94;;;-5.82;64.23
73284;BME280;61519;60.050;18.582;2024-01-16T01:57:23;99350.31;;;-5.83;64.17
73284;BME280;61519;60.050;18.582;2024-01-16T01:59:49;99400.31;;;-5.53;64.15
73284;BME280;61519;60.050;18.582;2024-01-16T02:02:15;99394.78;;;-5.59;64.25
73284;BME280;61519;60.050;18.582;2024-01-16T02:04:43;99399.00;;;-5.58;64.17
73284;BME280;61519;60.050;18.582;2024-01-16T02:07:09;99405.47;;;-5.65;64.03
73284;BME280;61519;60.050;18.582;2024-01-16T02:09:35;99405.06;;;-5.72;63.93
73284;BME280;61519;60.050;18.582;2024-01-16T02:12:01;99422.75;;;-5.67;63.92
73284;BME280;61519;60.050;18.582;2024-01-16T02:14:26;99372.59;;;-6.07;64.10
73284;BME280;61519;60.050;18.582;2024-01-16T02:16:52;99373.22;;;-6.16;64.03
73284;BME280;61519;60.050;18.582;2024-01-16T02:19:17;99413.00;;;-5.98;64.04
73284;BME280;61519;60.050;18.582;2024-01-16T02:21:49;99422.31;;;-5.97;63.80
73284;BME280;61519;60.050;18.582;2024-01-16T02:24:17;99400.91;;;-6.09;63.97
73284;BME280;61519;60.050;18.582;2024-01-16T02:26:44;99441.72;;;-5.93;63.88
73284;BME280;61519;60.050;18.582;2024-01-16T02:29:10;99408.94;;;-6.13;64.05
73284;BME280;61519;60.050;18.582;2024-01-16T02:31:35;99415.50;;;-6.09;63.63
73284;BME280;61519;60.050;18.582;2024-01-16T02:34:01;99451.50;;;-5.98;63.62
73284;BME280;61519;60.050;18.582;2024-01-16T02:36:28;99430.78;;;-6.20;63.81
73284;BME280;61519;60.050;18.582;2024-01-16T02:38:54;99439.53;;;-6.23;63.74
73284;BME280;61519;60.050;18.582;2024-01-16T02:41:20;99458.81;;;-6.17;63.64
73284;BME280;61519;60.050;18.582;2024-01-16T02:43:45;99449.56;;;-6.33;63.52
73284;BME280;61519;60.050;18.582;2024-01-16T02:46:11;99455.94;;;-6.25;63.87
73284;BME280;61519;60.050;18.582;2024-01-16T02:48:37;99455.72;;;-6.22;63.84
73284;BME280;61519;60.050;18.582;2024-01-16T02:51:03;99456.34;;;-6.32;63.83
73284;BME280;61519;60.050;18.582;2024-01-16T02:53:29;99470.72;;;-6.29;63.61
73284;BME280;61519;60.050;18.582;2024-01-16T02:55:55;99459.03;;;-6.46;63.77
73284;BME280;61519;60.050;18.582;2024-01-16T02:58:23;99494.13;;;-6.34;63.80
73284;BME280;61519;60.050;18.582;2024-01-16T03:00:49;99477.69;;;-6.44;63.89
73284;BME280;61519;60.050;18.582;2024-01-16T03:03:14;99464.56;;;-6.52;63.84
73284;BME280;61519;60.050;18.582;2024-01-16T03:05:40;99495.97;;;-6.36;63.57
73284;BME280;61519;60.050;18.582;2024-01-16T03:08:06;99487.53;;;-6.38;64.02
73284;BME280;61519;60.050;18.582;2024-01-16T03:10:32;99427.41;;;-6.84;63.96
73284;BME280;61519;60.050;18.582;2024-01-16T03:12:57;99448.53;;;-6.68;63.52
73284;BME280;61519;60.050;18.582;2024-01-16T03:15:23;99488.66;;;-6.42;63.92
73284;BME280;61519;60.050;18.582;2024-01-16T03:17:48;99458.59;;;-6.65;63.96
73284;BME280;61519;60.050;18.582;2024-01-16T03:20:15;99510.63;;;-6.38;63.86
73284;BME280;61519;60.050;18.582;2024-01-16T03:22:40;99513.38;;;-6.41;63.76
73284;BME280;61519;60.050;18.582;2024-01-16T03:25:08;99507.63;;;-6.44;63.74
73284;BME280;61519;60.050;18.582;2024-01-16T03:27:33;99513.81;;;-6.47;64.02
73284;BME280;61519;60.050;18.582;2024-01-16T03:29:59;99513.50;;;-6.42;64.07
73284;BME280;61519;60.050;18.582;2024-01-16T03:32:24;99515.44;;;-6.46;63.76
73284;BME280;61519;60.050;18.582;2024-01-16T03:34:50;99498.19;;;-6.56;63.93
73284;BME280;61519;60.050;18.582;2024-01-16T03:37:15;99478.41;;;-6.67;63.99
73284;BME280;61519;60.050;18.582;2024-01-16T03:39:41;99522.41;;;-6.48;63.90
73284;BME280;61519;60.050;18.582;2024-01-16T03:42:07;99498.06;;;-6.67;64.14
73284;BME280;61519;60.050;18.582;2024-01-16T03:44:32;99524.25;;;-6.50;64.07
73284;BME280;61519;60.050;18.582;2024-01-16T03:46:57;99498.28;;;-6.70;63.98
73284;BME280;61519;60.050;18.582;2024-01-16T03:49:22;99506.78;;;-6.70;63.87
73284;BME280;61519;60.050;18.582;2024-01-16T03:51:48;99500.44;;;-6.64;63.98
73284;BME280;61519;60.050;18.582;2024-01-16T03:54:14;99505.88;;;-6.69;63.81
73284;BME280;61519;60.050;18.582;2024-01-16T03:56:39;99508.53;;;-6.70;63.92
73284;BME280;61519;60.050;18.582;2024-01-16T03:59:05;99516.44;;;-6.61;63.89
73284;BME280;61519;60.050;18.582;2024-01-16T04:01:32;99513.16;;;-6.63;63.85
73284;BME280;61519;60.050;18.582;2024-01-16T04:03:57;99526.31;;;-6.55;63.94
73284;BME280;61519;60.050;18.582;2024-01-16T04:06:23;99518.28;;;-6.63;63.75
73284;BME280;61519;60.050;18.582;2024-01-16T04:08:48;99519.34;;;-6.53;63.56
73284;BME280;61519;60.050;18.582;2024-01-16T04:11:14;99507.00;;;-6.60;63.70
73284;BME280;61519;60.050;18.582;2024-01-16T04:13:39;99537.63;;;-6.45;63.94
73284;BME280;61519;60.050;18.582;2024-01-16T04:16:06;99540.19;;;-6.45;63.79
73284;BME280;61519;60.050;18.582;2024-01-16T04:18:39;99517.06;;;-6.57;63.75
73284;BME280;61519;60.050;18.582;2024-01-16T04:21:05;99546.22;;;-6.46;63.92
73284;BME280;61519;60.050;18.582;2024-01-16T04:23:30;99533.78;;;-6.52;63.84
73284;BME280;61519;60.050;18.582;2024-01-16T04:25:55;99514.19;;;-6.65;63.66
73284;BME280;61519;60.050;18.582;2024-01-16T04:28:20;99528.56;;;-6.63;63.80
73284;BME280;61519;60.050;18.582;2024-01-16T04:30:46;99541.69;;;-6.55;63.78
73284;BME280;61519;60.050;18.582;2024-01-16T04:33:11;99526.16;;;-6.66;63.76
73284;BME280;61519;60.050;18.582;2024-01-16T04:35:36;99534.91;;;-6.68;63.56
73284;BME280;61519;60.050;18.582;2024-01-16T04:38:02;99557.66;;;-6.64;63.83
73284;BME280;61519;60.050;18.582;2024-01-16T04:40:28;99526.63;;;-6.86;63.56
73284;BME280;61519;60.050;18.582;2024-01-16T04:42:53;99546.72;;;-6.80;63.56
73284;BME280;61519;60.050;18.582;2024-01-16T04:45:19;99557.19;;;-6.83;63.82
73284;BME280;61519;60.050;18.582;2024-01-16T04:47:44;99559.75;;;-6.83;64.00
73284;BME280;61519;60.050;18.582;2024-01-16T04:50:09;99571.94;;;-6.86;63.52
73284;BME280;61519;60.050;18.582;2024-01-16T04:52:35;99566.38;;;-6.93;63.79
73284;BME280;61519;60.050;18.582;2024-01-16T04:55:00;99589.28;;;-6.90;63.62
73284;BME280;61519;60.050;18.582;2024-01-16T04:57:25;99578.28;;;-6.92;63.84
73284;BME280;61519;60.050;18.582;2024-01-16T04:59:52;99587.50;;;-6.89;63.65
73284;BME280;61519;60.050;18.582;2024-01-16T05:02:17;99551.97;;;-7.08;63.89
73284;BME280;61519;60.050;18.582;2024-01-16T05:04:43;99512.72;;;-7.35;63.78
73284;BME280;61519;60.050;18.582;2024-01-16T05:07:09;99594.91;;;-6.85;63.75
73284;BME280;61519;60.050;18.582;2024-01-16T05:09:34;99548.69;;;-7.10;64.02
73284;BME280;61519;60.050;18.582;2024-01-16T05:12:00;99566.97;;;-7.02;63.56
73284;BME280;61519;60.050;18.582;2024-01-16T05:14:25;99584.16;;;-6.90;63.80
73284;BME280;61519;60.050;18.582;2024-01-16T05:16:51;99587.72;;;-6.92;63.74
73284;BME280;61519;60.050;18.582;2024-01-16T05:19:18;99552.53;;;-7.17;63.66
73284;BME280;61519;60.050;18.582;2024-01-16T05:21:43;99581.63;;;-7.04;63.92
73284;BME280;61519;60.050;18.582;2024-01-16T05:24:09;99573.38;;;-7.09;63.70
73284;BME280;61519;60.050;18.582;2024-01-16T05:26:34;99582.53;;;-7.05;63.78
73284;BME280;61519;60.050;18.582;2024-01-16T05:29:00;99594.22;;;-7.01;63.91
73284;BME280;61519;60.050;18.582;2024-01-16T05:31:25;99553.69;;;-7.35;63.81
73284;BME280;61519;60.050;18.582;2024-01-16T05:33:50;99555.84;;;-7.29;63.74
73284;BME280;61519;60.050;18.582;2024-01-16T05:36:16;99605.56;;;-7.05;63.64
73284;BME280;61519;60.050;18.582;2024-01-16T05:38:41;99578.53;;;-7.23;63.69
73284;BME280;61519;60.050;18.582;2024-01-16T05:41:06;99612.25;;;-7.02;63.75
73284;BME280;61519;60.050;18.582;2024-01-16T05:43:32;99597.47;;;-7.11;63.63
73284;BME280;61519;60.050;18.582;2024-01-16T05:45:57;99610.19;;;-7.10;63.74
73284;BME280;61519;60.050;18.582;2024-01-16T05:48:22;99590.44;;;-7.22;63.83
73284;BME280;61519;60.050;18.582;2024-01-16T05:50:48;99630.09;;;-7.01;63.51
73284;BME280;61519;60.050;18.582;2024-01-16T05:53:13;99625.34;;;-7.07;63.37
73284;BME280;61519;60.050;18.582;2024-01-16T05:55:38;99621.31;;;-7.11;63.47
73284;BME280;61519;60.050;18.582;2024-01-16T05:58:04;99625.00;;;-7.15;63.61
73284;BME280;61519;60.050;18.582;2024-01-16T06:00:30;99621.34;;;-7.25;63.76
73284;BME280;61519;60.050;18.582;2024-01-16T06:02:56;99645.47;;;-7.15;63.87
73284;BME280;61519;60.050;18.582;2024-01-16T06:05:21;99639.38;;;-7.27;63.51
73284;BME280;61519;60.050;18.582;2024-01-16T06:07:46;99627.03;;;-7.34;63.32
73284;BME280;61519;60.050;18.582;2024-01-16T06:10:12;99647.78;;;-7.25;63.65
73284;BME280;61519;60.050;18.582;2024-01-16T06:12:39;99650.44;;;-7.40;63.36
73284;BME280;61519;60.050;18.582;2024-01-16T06:15:04;99653.00;;;-7.40;63.22
73284;BME280;61519;60.050;18.582;2024-01-16T06:17:30;99651.16;;;-7.52;63.49
73284;BME280;61519;60.050;18.582;2024-01-16T06:19:55;99610.22;;;-7.80;63.33
73284;BME280;61519;60.050;18.582;2024-01-16T06:22:21;99675.31;;;-7.42;63.25
73284;BME280;61519;60.050;18.582;2024-01-16T06:24:46;99670.91;;;-7.54;63.02
73284;BME280;61519;60.050;18.582;2024-01-16T06:27:11;99657.66;;;-7.75;62.98
73284;BME280;61519;60.050;18.582;2024-01-16T06:29:47;99669.09;;;-7.80;62.64
73284;BME280;61519;60.050;18.582;2024-01-16T06:32:13;99669.59;;;-7.89;62.94
73284;BME280;61519;60.050;18.582;2024-01-16T06:34:38;99687.84;;;-7.95;63.08
73284;BME280;61519;60.050;18.582;2024-01-16T06:37:04;99675.28;;;-8.14;62.62
73284;BME280;61519;60.050;18.582;2024-01-16T06:39:29;99686.41;;;-8.15;62.72
73284;BME280;61519;60.050;18.582;2024-01-16T06:41:54;99647.19;;;-8.44;62.85
73284;BME280;61519;60.050;18.582;2024-01-16T06:44:20;99699.72;;;-8.24;63.04
73284;BME280;61519;60.050;18.582;2024-01-16T06:46:45;99696.56;;;-8.28;62.93
73284;BME280;61519;60.050;18.582;2024-01-16T06:49:10;99651.81;;;-8.66;62.72
73284;BME280;61519;60.050;18.582;2024-01-16T06:51:36;99694.84;;;-8.43;62.54
73284;BME280;61519;60.050;18.582;2024-01-16T06:54:01;99694.50;;;-8.52;62.92
73284;BME280;61519;60.050;18.582;2024-01-16T06:56:26;99700.22;;;-8.63;62.55
73284;BME280;61519;60.050;18.582;2024-01-16T06:58:52;99720.59;;;-8.61;62.53
73284;BME280;61519;60.050;18.582;2024-01-16T07:01:18;99718.44;;;-8.69;62.42
73284;BME280;61519;60.050;18.582;2024-01-16T07:03:43;99719.09;;;-8.81;62.52
73284;BME280;61519;60.050;18.582;2024-01-16T07:06:09;99729.22;;;-8.79;62.20
73284;BME280;61519;60.050;18.582;2024-01-16T07:08:34;99699.88;;;-9.04;62.06
73284;BME280;61519;60.050;18.582;2024-01-16T07:11:00;99726.66;;;-8.95;62.00
73284;BME280;61519;60.050;18.582;2024-01-16T07:13:26;99730.44;;;-9.02;62.07
73284;BME280;61519;60.050;18.582;2024-01-16T07:15:51;99733.47;;;-9.11;62.22
73284;BME280;61519;60.050;18.582;2024-01-16T07:18:17;99722.81;;;-9.19;62.32
73284;BME280;61519;60.050;18.582;2024-01-16T07:20:43;99724.41;;;-9.17;62.44
73284;BME280;61519;60.050;18.582;2024-01-16T07:23:08;99720.00;;;-9.30;62.47
73284;BME280;61519;60.050;18.582;2024-01-16T07:25:34;99735.91;;;-9.25;62.27
73284;BME280;61519;60.050;18.582;2024-01-16T07:27:59;99714.56;;;-9.40;62.62
73284;BME280;61519;60.050;18.582;2024-01-16T07:30:24;99718.06;;;-9.42;62.12
73284;BME280;61519;60.050;18.582;2024-01-16T07:32:50;99747.84;;;-9.26;62.07
73284;BME280;61519;60.050;18.582;2024-01-16T07:35:16;99734.44;;;-9.46;62.11
73284;BME280;61519;60.050;18.582;2024-01-16T07:37:41;99748.69;;;-9.42;62.00
73284;BME280;61519;60.050;18.582;2024-01-16T07:40:07;99751.41;;;-9.45;62.21
73284;BME280;61519;60.050;18.582;2024-01-16T07:42:34;99716.59;;;-9.63;62.03
73284;BME280;61519;60.050;18.582;2024-01-16T07:45:01;99756.81;;;-9.51;62.14
73284;BME280;61519;60.050;18.582;2024-01-16T07:47:32;99727.41;;;-9.75;61.72
73284;BME280;61519;60.050;18.582;2024-01-16T07:49:58;99761.19;;;-9.53;61.91
73284;BME280;61519;60.050;18.582;2024-01-16T07:52:23;99735.66;;;-9.70;61.55
73284;BME280;61519;60.050;18.582;2024-01-16T07:54:49;99757.94;;;-9.57;61.86
73284;BME280;61519;60.050;18.582;2024-01-16T07:57:14;99757.47;;;-9.65;61.49
73284;BME280;61519;60.050;18.582;2024-01-16T07:59:39;99775.56;;;-9.18;61.38
73284;BME280;61519;60.050;18.582;2024-01-16T08:02:06;99776.63;;;-8.43;60.86
73284;BME280;61519;60.050;18.582;2024-01-16T08:04:31;99769.84;;;-8.13;60.83
73284;BME280;61519;60.050;18.582;2024-01-16T08:06:57;99770.72;;;-8.14;60.78
73284;BME280;61519;60.050;18.582;2024-01-16T08:09:23;99749.75;;;-8.34;60.54
73284;BME280;61519;60.050;18.582;2024-01-16T08:11:48;99765.50;;;-7.81;60.38
73284;BME280;61519;60.050;18.582;2024-01-16T08:14:13;99775.41;;;-7.03;60.44
73284;BME280;61519;60.050;18.582;2024-01-16T08:16:39;99777.66;;;-6.42;59.64
73284;BME280;61519;60.050;18.582;2024-01-16T08:19:04;99738.91;;;-5.59;59.30
73284;BME280;61519;60.050;18.582;2024-01-16T08:21:29;99749.75;;;-4.42;58.50
73284;BME280;61519;60.050;18.582;2024-01-16T08:23:55;99732.41;;;-2.69;56.66
73284;BME280;61519;60.050;18.582;2024-01-16T08:26:20;99753.28;;;-0.32;54.62
73284;BME280;61519;60.050;18.582;2024-01-16T08:28:45;99736.84;;;0.36;53.20
73284;BME280;61519;60.050;18.582;2024-01-16T08:31:11;99755.25;;;0.04;52.89
73284;BME280;61519;60.050;18.582;2024-01-16T08:33:36;99748.13;;;-0.13;52.97
73284;BME280;61519;60.050;18.582;2024-01-16T08:36:02;99745.94;;;2.06;51.20
73284;BME280;61519;60.050;18.582;2024-01-16T08:38:29;99730.41;;;4.50;48.23
73284;BME280;61519;60.050;18.582;2024-01-16T08:40:54;99729.09;;;6.78;45.41
73284;BME280;61519;60.050;18.582;2024-01-16T08:43:20;99732.22;;;8.68;43.09
73284;BME280;61519;60.050;18.582;2024-01-16T08:45:45;99740.00;;;10.39;41.05
73284;BME280;61519;60.050;18.582;2024-01-16T08:48:12;99738.59;;;11.85;39.07
73284;BME280;61519;60.050;18.582;2024-01-16T08:50:40;99754.69;;;12.28;38.46
73284;BME280;61519;60.050;18.582;2024-01-16T08:53:05;99762.94;;;10.45;39.62
73284;BME280;61519;60.050;18.582;2024-01-16T08:55:31;99742.44;;;8.35;41.04
73284;BME280;61519;60.050;18.582;2024-01-16T08:57:57;99749.28;;;7.06;42.22
73284;BME280;61519;60.050;18.582;2024-01-16T09:00:22;99778.19;;;6.39;42.81
73284;BME280;61519;60.050;18.582;2024-01-16T09:02:48;99776.66;;;6.44;42.66
73284;BME280;61519;60.050;18.582;2024-01-16T09:05:14;99769.81;;;6.12;42.63
73284;BME280;61519;60.050;18.582;2024-01-16T09:07:40;99783.00;;;5.50;43.19
73284;BME280;61519;60.050;18.582;2024-01-16T09:10:06;99767.91;;;4.57;43.59
73284;BME280;61519;60.050;18.582;2024-01-16T09:12:32;99749.47;;;4.90;43.51
73284;BME280;61519;60.050;18.582;2024-01-16T09:14:58;99785.84;;;7.52;41.43
73284;BME280;61519;60.050;18.582;2024-01-16T09:17:24;99781.13;;;9.45;39.73
73284;BME280;61519;60.050;18.582;2024-01-16T09:19:51;99771.22;;;9.47;39.31
73284;BME280;61519;60.050;18.582;2024-01-16T09:22:17;99792.09;;;7.80;40.67
73284;BME280;61519;60.050;18.582;2024-01-16T09:24:43;99803.00;;;5.81;42.18
73284;BME280;61519;60.050;18.582;2024-01-16T09:27:09;99810.56;;;4.07;43.16
73284;BME280;61519;60.050;18.582;2024-01-16T09:29:35;99818.13;;;2.56;44.36
73284;BME280;61519;60.050;18.582;2024-01-16T09:32:01;99800.19;;;1.37;44.93
73284;BME280;61519;60.050;18.582;2024-01-16T09:34:26;99799.28;;;1.65;45.12
73284;BME280;61519;60.050;18.582;2024-01-16T09:36:51;99809.41;;;3.60;44.34
73284;BME280;61519;60.050;18.582;2024-01-16T09:39:17;99812.88;;;6.10;42.22
73284;BME280;61519;60.050;18.582;2024-01-16T09:41:42;99806.06;;;7.14;41.06
73284;BME280;61519;60.050;18.582;2024-01-16T09:44:09;99809.19;;;6.95;41.30
73284;BME280;61519;60.050;18.582;2024-01-16T09:46:37;99813.72;;;6.02;41.94
73284;BME280;61519;60.050;18.582;2024-01-16T09:49:03;99796.31;;;5.00;42.56
73284;BME280;61519;60.050;18.582;2024-01-16T09:51:28;99813.50;;;4.04;43.10
73284;BME280;61519;60.050;18.582;2024-01-16T09:53:54;99783.56;;;2.90;43.73
73284;BME280;61519;60.050;18.582;2024-01-16T09:56:21;99785.41;;;2.19;44.64
73284;BME280;61519;60.050;18.582;2024-01-16T09:58:48;99816.19;;;2.58;45.47
73284;BME280;61519;60.050;18.582;2024-01-16T10:01:15;99816.16;;;4.12;45.15
73284;BME280;61519;60.050;18.582;2024-01-16T10:03:44;99771.97;;;5.62;43.93
73284;BME280;61519;60.050;18.582;2024-01-16T10:06:10;99793.00;;;7.72;42.02
73284;BME280;61519;60.050;18.582;2024-01-16T10:08:36;99802.91;;;9.60;40.30
73284;BME280;61519;60.050;18.582;2024-01-16T10:11:02;99800.50;;;11.25;39.20
73284;BME280;61519;60.050;18.582;2024-01-16T10:13:28;99792.59;;;12.78;37.76
73284;BME280;61519;60.050;18.582;2024-01-16T10:15:54;99798.94;;;14.05;36.82
73284;BME280;61519;60.050;18.582;2024-01-16T10:20:49;99793.44;;;16.16;34.43
73284;BME280;61519;60.050;18.582;2024-01-16T10:23:29;99792.06;;;16.14;34.23
73284;BME280;61519;60.050;18.582;2024-01-16T10:26:09;99795.63;;;15.22;34.67
73284;BME280;61519;60.050;18.582;2024-01-16T10:28:36;99800.03;;;14.63;34.95
73284;BME280;61519;60.050;18.582;2024-01-16T10:31:05;99801.75;;;13.31;35.64
73284;BME280;61519;60.050;18.582;2024-01-16T10:33:31;99798.75;;;11.96;36.28
73284;BME280;61519;60.050;18.582;2024-01-16T10:36:13;99801.31;;;11.39;36.20
73284;BME280;61519;60.050;18.582;2024-01-16T10:38:39;99796.84;;;10.87;36.22
73284;BME280;61519;60.050;18.582;2024-01-16T10:43:34;99795.00;;;12.17;35.18
73284;BME280;61519;60.050;18.582;2024-01-16T10:46:09;99796.13;;;13.46;34.29
73284;BME280;61519;60.050;18.582;2024-01-16T10:48:35;99788.16;;;13.28;34.49
73284;BME280;61519;60.050;18.582;2024-01-16T10:51:01;99790.75;;;12.54;35.19
73284;BME280;61519;60.050;18.582;2024-01-16T10:53:31;99788.84;;;12.23;35.04
73284;BME280;61519;60.050;18.582;2024-01-16T10:55:59;99795.09;;;13.29;33.98
73284;BME280;61519;60.050;18.582;2024-01-16T10:58:25;99802.66;;;15.05;32.49
73284;BME280;61519;60.050;18.582;2024-01-16T11:00:56;99800.94;;;15.79;31.85
73284;BME280;61519;60.050;18.582;2024-01-16T11:03:31;99800.25;;;15.26;31.92
73284;BME280;61519;60.050;18.582;2024-01-16T11:06:00;99807.22;;;14.45;32.05
73284;BME280;61519;60.050;18.582;2024-01-16T11:08:26;99803.03;;;13.04;32.74
73284;BME280;61519;60.050;18.582;2024-01-16T11:10:57;99807.84;;;12.07;33.00
73284;BME280;61519;60.050;18.582;2024-01-16T11:13:23;99804.56;;;11.15;33.48
73284;BME280;61519;60.050;18.582;2024-01-16T11:15:49;99813.19;;;9.90;33.88
73284;BME280;61519;60.050;18.582;2024-01-16T11:18:16;99755.88;;;7.75;34.76
73284;BME280;61519;60.050;18.582;2024-01-16T11:20:42;99833.22;;;6.84;35.35
73284;BME280;61519;60.050;18.582;2024-01-16T11:23:10;99827.84;;;7.15;35.02
73284;BME280;61519;60.050;18.582;2024-01-16T11:25:36;99832.59;;;8.07;34.48
73284;BME280;61519;60.050;18.582;2024-01-16T11:28:16;99839.13;;;7.67;34.73
73284;BME280;61519;60.050;18.582;2024-01-16T11:30:42;99788.88;;;7.11;34.74
73284;BME280;61519;60.050;18.582;2024-01-16T11:35:56;99797.31;;;4.83;36.65
73284;BME280;61519;60.050;18.582;2024-01-16T11:38:23;99833.91;;;4.01;37.25
73284;BME280;61519;60.050;18.582;2024-01-16T11:40:51;99836.09;;;3.03;38.06
73284;BME280;61519;60.050;18.582;2024-01-16T11:45:58;99814.53;;;0.75;39.72
73284;BME280;61519;60.050;18.582;2024-01-16T11:48:24;99851.22;;;0.14;39.81
73284;BME280;61519;60.050;18.582;2024-01-16T11:50:50;99839.31;;;-0.59;40.56
73284;BME280;61519;60.050;18.582;2024-01-16T11:53:32;99845.34;;;-1.00;40.84
73284;BME280;61519;60.050;18.582;2024-01-16T11:58:48;99843.19;;;-1.67;41.38
73284;BME280;61519;60.050;18.582;2024-01-16T12:01:18;99836.78;;;-1.95;41.99
73284;BME280;61519;60.050;18.582;2024-01-16T12:04:04;99825.09;;;-2.54;42.14
73284;BME280;61519;60.050;18.582;2024-01-16T12:06:30;99836.59;;;-2.70;42.74
73284;BME280;61519;60.050;18.582;2024-01-16T12:09:13;99834.44;;;-2.87;42.98
73284;BME280;61519;60.050;18.582;2024-01-16T12:11:40;99842.38;;;-3.12;43.10
73284;BME280;61519;60.050;18.582;2024-01-16T12:14:06;99837.22;;;-3.46;43.46
73284;BME280;61519;60.050;18.582;2024-01-16T12:16:32;99830.66;;;-3.74;43.82
73284;BME280;61519;60.050;18.582;2024-01-16T12:19:08;99831.53;;;-3.99;43.94
73284;BME280;61519;60.050;18.582;2024-01-16T12:21:44;99837.06;;;-4.16;43.95
73284;BME280;61519;60.050;18.582;2024-01-16T12:24:10;99830.84;;;-4.37;43.98
73284;BME280;61519;60.050;18.582;2024-01-16T12:26:36;99833.94;;;-4.57;44.14
73284;BME280;61519;60.050;18.582;2024-01-16T12:29:02;99841.38;;;-4.78;44.20
73284;BME280;61519;60.050;18.582;2024-01-16T12:31:28;99841.03;;;-4.98;44.39
73284;BME280;61519;60.050;18.582;2024-01-16T12:34:04;99839.28;;;-5.23;44.60
73284;BME280;61519;60.050;18.582;2024-01-16T12:36:30;99752.63;;;-5.98;44.52
73284;BME280;61519;60.050;18.582;2024-01-16T12:38:55;99835.34;;;-5.68;44.76
73284;BME280;61519;60.050;18.582;2024-01-16T12:41:22;99850.41;;;-5.76;44.79
73284;BME280;61519;60.050;18.582;2024-01-16T12:43:50;99858.09;;;-5.88;44.79
73284;BME280;61519;60.050;18.582;2024-01-16T12:46:16;99860.34;;;-6.10;44.98
73284;BME280;61519;60.050;18.582;2024-01-16T12:48:41;99869.72;;;-6.23;44.80
73284;BME280;61519;60.050;18.582;2024-01-16T12:51:06;99844.09;;;-6.52;44.98
73284;BME280;61519;60.050;18.582;2024-01-16T12:53:32;99864.78;;;-6.55;45.00
73284;BME280;61519;60.050;18.582;2024-01-16T12:55:59;99849.03;;;-6.77;45.18
73284;BME280;61519;60.050;18.582;2024-01-16T12:58:28;99854.50;;;-6.83;45.24
73284;BME280;61519;60.050;18.582;2024-01-16T13:00:56;99814.13;;;-7.22;45.21